KEWK/EWK METAR and TAF weather

Enter ICAO airport designator
Station Type Date Time Source
KEWK METAR 2021/07/29 02:56 UTC NOAA

KEWK 290256Z AUTO 15008KT 10SM CLR 28/22 A3005 RMK AO2 SLP157 T02780217 53008


Station Type Date Time Source
KEWK Decoded METAR 2021/07/29 02:56 UTC NOAA

Newton, Newton City/County Airport, KS, United States (KEWK) 38-03N 097-17W
Jul 28, 2021 - 10:56 PM EDT / 2021.07.29 0256 UTC
Wind: from the SSE (150 degrees) at 9 MPH (8 KT):0
Visibility: 10 mile(s):0
Sky conditions: clear
Temperature: 82.0 F (27.8 C)
Dew Point: 71.1 F (21.7 C)
Relative Humidity: 69%
Pressure (altimeter): 30.05 in. Hg (1017 hPa)
Pressure tendency: 0.02 inches (0.8 hPa) higher than three hours ago
ob: KEWK 290256Z AUTO 15008KT 10SM CLR 28/22 A3005 RMK AO2 SLP157 T02780217 53008
cycle: 3

Station Type Date Time Source
KEWK TAF UTC NOAA

Error!

Example: see airport list